sensor_id;sensor_type;location;lat;lon;timestamp;temperature;humidity
42031;DHT22;27709;52.036;5.906;2023-02-01T00:00:12;5.50;99.90
42031;DHT22;27709;52.036;5.906;2023-02-01T00:02:38;5.50;99.90
42031;DHT22;27709;52.036;5.906;2023-02-01T00:05:07;5.50;99.90
42031;DHT22;27709;52.036;5.906;2023-02-01T00:07:34;5.60;99.90
42031;DHT22;27709;52.036;5.906;2023-02-01T00:09:59;5.60;99.90
42031;DHT22;27709;52.036;5.906;2023-02-01T00:12:25;5.60;99.90
42031;DHT22;27709;52.036;5.906;2023-02-01T00:14:51;5.60;99.90
42031;DHT22;27709;52.036;5.906;2023-02-01T00:17:17;5.60;99.90
42031;DHT22;27709;52.036;5.906;2023-02-01T00:19:42;5.60;99.90
42031;DHT22;27709;52.036;5.906;2023-02-01T00:22:08;5.70;99.90
42031;DHT22;27709;52.036;5.906;2023-02-01T00:24:33;5.70;99.90
42031;DHT22;27709;52.036;5.906;2023-02-01T00:26:59;5.70;99.90
42031;DHT22;27709;52.036;5.906;2023-02-01T00:29:25;5.70;99.90
42031;DHT22;27709;52.036;5.906;2023-02-01T00:31:51;5.70;99.90
42031;DHT22;27709;52.036;5.906;2023-02-01T00:34:18;5.70;99.90
42031;DHT22;27709;52.036;5.906;2023-02-01T00:36:44;5.70;99.90
42031;DHT22;27709;52.036;5.906;2023-02-01T00:39:10;5.70;99.90
42031;DHT22;27709;52.036;5.906;2023-02-01T00:41:36;5.70;99.90
42031;DHT22;27709;52.036;5.906;2023-02-01T00:44:02;5.70;99.90
42031;DHT22;27709;52.036;5.906;2023-02-01T00:46:28;5.70;99.90
42031;DHT22;27709;52.036;5.906;2023-02-01T00:48:54;5.60;99.90
42031;DHT22;27709;52.036;5.906;2023-02-01T00:51:25;5.70;99.90
42031;DHT22;27709;52.036;5.906;2023-02-01T00:53:51;5.70;99.90
42031;DHT22;27709;52.036;5.906;2023-02-01T00:56:17;5.70;99.90
42031;DHT22;27709;52.036;5.906;2023-02-01T00:58:43;5.70;99.90
42031;DHT22;27709;52.036;5.906;2023-02-01T01:01:21;5.70;99.90
42031;DHT22;27709;52.036;5.906;2023-02-01T01:03:50;5.80;99.90
42031;DHT22;27709;52.036;5.906;2023-02-01T01:06:20;5.80;99.90
42031;DHT22;27709;52.036;5.906;2023-02-01T01:08:47;5.80;99.90
42031;DHT22;27709;52.036;5.906;2023-02-01T01:11:19;5.80;99.90
42031;DHT22;27709;52.036;5.906;2023-02-01T01:13:49;5.80;99.90
42031;DHT22;27709;52.036;5.906;2023-02-01T01:16:17;5.70;99.90
42031;DHT22;27709;52.036;5.906;2023-02-01T01:18:43;5.70;99.90
42031;DHT22;27709;52.036;5.906;2023-02-01T01:21:11;5.70;99.90
42031;DHT22;27709;52.036;5.906;2023-02-01T01:23:37;5.70;99.90
42031;DHT22;27709;52.036;5.906;2023-02-01T01:26:08;5.70;99.90
42031;DHT22;27709;52.036;5.906;2023-02-01T01:28:34;5.60;99.90
42031;DHT22;27709;52.036;5.906;2023-02-01T01:31:00;5.60;99.90
42031;DHT22;27709;52.036;5.906;2023-02-01T01:33:25;5.50;99.90
42031;DHT22;27709;52.036;5.906;2023-02-01T01:35:52;5.60;99.90
42031;DHT22;27709;52.036;5.906;2023-02-01T01:38:18;5.60;99.90
42031;DHT22;27709;52.036;5.906;2023-02-01T01:40:47;5.60;99.90
42031;DHT22;27709;52.036;5.906;2023-02-01T01:43:16;5.60;99.90
42031;DHT22;27709;52.036;5.906;2023-02-01T01:45:45;5.60;99.90
42031;DHT22;27709;52.036;5.906;2023-02-01T01:48:20;5.60;99.90
42031;DHT22;27709;52.036;5.906;2023-02-01T01:51:08;5.60;99.90
42031;DHT22;27709;52.036;5.906;2023-02-01T01:53:43;5.50;99.90
42031;DHT22;27709;52.036;5.906;2023-02-01T01:56:11;5.50;99.90
42031;DHT22;27709;52.036;5.906;2023-02-01T01:58:37;5.50;99.90
42031;DHT22;27709;52.036;5.906;2023-02-01T02:01:03;5.60;99.90
42031;DHT22;27709;52.036;5.906;2023-02-01T02:03:38;5.60;99.90
42031;DHT22;27709;52.036;5.906;2023-02-01T02:06:11;5.60;99.90
42031;DHT22;27709;52.036;5.906;2023-02-01T02:08:39;5.60;99.90
42031;DHT22;27709;52.036;5.906;2023-02-01T02:11:04;5.60;99.90
42031;DHT22;27709;52.036;5.906;2023-02-01T02:13:36;5.70;99.90
42031;DHT22;27709;52.036;5.906;2023-02-01T02:19:07;5.60;99.90
42031;DHT22;27709;52.036;5.906;2023-02-01T02:21:45;5.60;99.90
42031;DHT22;27709;52.036;5.906;2023-02-01T02:24:51;5.60;99.90
42031;DHT22;27709;52.036;5.906;2023-02-01T02:30:51;5.70;99.90
42031;DHT22;27709;52.036;5.906;2023-02-01T02:36:08;5.70;99.90
42031;DHT22;27709;52.036;5.906;2023-02-01T02:38:47;5.70;99.90
42031;DHT22;27709;52.036;5.906;2023-02-01T02:41:31;5.80;99.90
42031;DHT22;27709;52.036;5.906;2023-02-01T02:45:12;5.80;99.90
42031;DHT22;27709;52.036;5.906;2023-02-01T02:48:23;5.80;99.90
42031;DHT22;27709;52.036;5.906;2023-02-01T02:51:07;5.80;99.90
42031;DHT22;27709;52.036;5.906;2023-02-01T02:54:07;5.80;99.90
42031;DHT22;27709;52.036;5.906;2023-02-01T02:56:53;5.70;99.90
42031;DHT22;27709;52.036;5.906;2023-02-01T02:59:40;5.70;99.90
42031;DHT22;27709;52.036;5.906;2023-02-01T03:02:27;5.80;99.90
42031;DHT22;27709;52.036;5.906;2023-02-01T03:05:12;5.80;99.90
42031;DHT22;27709;52.036;5.906;2023-02-01T03:10:26;5.80;99.90
42031;DHT22;27709;52.036;5.906;2023-02-01T03:12:54;5.90;99.90
42031;DHT22;27709;52.036;5.906;2023-02-01T03:15:29;5.90;99.90
42031;DHT22;27709;52.036;5.906;2023-02-01T03:17:56;5.90;99.90
42031;DHT22;27709;52.036;5.906;2023-02-01T03:20:24;5.90;99.90
42031;DHT22;27709;52.036;5.906;2023-02-01T03:22:51;5.80;99.90
42031;DHT22;27709;52.036;5.906;2023-02-01T03:25:22;5.80;99.90
42031;DHT22;27709;52.036;5.906;2023-02-01T03:30:24;5.80;99.90
42031;DHT22;27709;52.036;5.906;2023-02-01T03:32:55;5.80;99.90
42031;DHT22;27709;52.036;5.906;2023-02-01T03:35:44;5.80;99.90
42031;DHT22;27709;52.036;5.906;2023-02-01T03:41:24;5.80;99.90
42031;DHT22;27709;52.036;5.906;2023-02-01T03:46:54;5.90;99.90
42031;DHT22;27709;52.036;5.906;2023-02-01T03:49:57;5.90;99.90
42031;DHT22;27709;52.036;5.906;2023-02-01T03:52:23;6.00;99.90
42031;DHT22;27709;52.036;5.906;2023-02-01T03:54:50;6.00;99.90
42031;DHT22;27709;52.036;5.906;2023-02-01T03:57:20;6.00;99.90
42031;DHT22;27709;52.036;5.906;2023-02-01T03:59:47;6.00;99.90
42031;DHT22;27709;52.036;5.906;2023-02-01T04:02:12;5.90;99.90
42031;DHT22;27709;52.036;5.906;2023-02-01T04:04:38;5.90;99.90
42031;DHT22;27709;52.036;5.906;2023-02-01T04:07:03;5.90;99.90
42031;DHT22;27709;52.036;5.906;2023-02-01T04:09:31;5.90;99.90
42031;DHT22;27709;52.036;5.906;2023-02-01T04:11:57;5.80;99.90
42031;DHT22;27709;52.036;5.906;2023-02-01T04:14:24;5.80;99.90
42031;DHT22;27709;52.036;5.906;2023-02-01T04:16:49;5.80;99.90
42031;DHT22;27709;52.036;5.906;2023-02-01T04:19:15;5.80;99.90
42031;DHT22;27709;52.036;5.906;2023-02-01T04:21:40;5.80;99.90
42031;DHT22;27709;52.036;5.906;2023-02-01T04:24:06;5.90;99.90
42031;DHT22;27709;52.036;5.906;2023-02-01T04:26:32;6.00;99.90
42031;DHT22;27709;52.036;5.906;2023-02-01T04:28:58;6.00;99.90
42031;DHT22;27709;52.036;5.906;2023-02-01T04:31:24;6.00;99.90
42031;DHT22;27709;52.036;5.906;2023-02-01T04:33:53;6.10;99.90
42031;DHT22;27709;52.036;5.906;2023-02-01T04:36:20;6.00;99.90
42031;DHT22;27709;52.036;5.906;2023-02-01T04:38:47;6.10;99.90
42031;DHT22;27709;52.036;5.906;2023-02-01T04:41:14;6.20;99.90
42031;DHT22;27709;52.036;5.906;2023-02-01T04:43:46;6.30;99.90
42031;DHT22;27709;52.036;5.906;2023-02-01T04:46:12;6.40;99.90
42031;DHT22;27709;52.036;5.906;2023-02-01T04:48:38;6.40;99.90
42031;DHT22;27709;52.036;5.906;2023-02-01T04:51:04;6.50;99.90
42031;DHT22;27709;52.036;5.906;2023-02-01T04:53:29;6.50;99.90
42031;DHT22;27709;52.036;5.906;2023-02-01T04:55:55;6.60;99.90
42031;DHT22;27709;52.036;5.906;2023-02-01T04:58:21;6.60;99.90
42031;DHT22;27709;52.036;5.906;2023-02-01T05:00:46;6.60;99.90
42031;DHT22;27709;52.036;5.906;2023-02-01T05:03:12;6.70;99.90
42031;DHT22;27709;52.036;5.906;2023-02-01T05:05:37;6.70;99.90
42031;DHT22;27709;52.036;5.906;2023-02-01T05:08:03;6.80;99.90
42031;DHT22;27709;52.036;5.906;2023-02-01T05:10:29;6.80;99.90
42031;DHT22;27709;52.036;5.906;2023-02-01T05:12:54;6.90;99.90
42031;DHT22;27709;52.036;5.906;2023-02-01T05:15:38;6.90;99.90
42031;DHT22;27709;52.036;5.906;2023-02-01T05:18:04;6.90;99.90
42031;DHT22;27709;52.036;5.906;2023-02-01T05:20:29;6.90;99.90
42031;DHT22;27709;52.036;5.906;2023-02-01T05:22:55;7.00;99.90
42031;DHT22;27709;52.036;5.906;2023-02-01T05:25:20;7.00;99.90
42031;DHT22;27709;52.036;5.906;2023-02-01T05:27:46;7.10;99.90
42031;DHT22;27709;52.036;5.906;2023-02-01T05:30:12;7.00;99.90
42031;DHT22;27709;52.036;5.906;2023-02-01T05:32:38;7.10;99.90
42031;DHT22;27709;52.036;5.906;2023-02-01T05:35:04;7.10;99.90
42031;DHT22;27709;52.036;5.906;2023-02-01T05:37:30;7.10;99.90
42031;DHT22;27709;52.036;5.906;2023-02-01T05:39:56;7.10;99.90
42031;DHT22;27709;52.036;5.906;2023-02-01T05:42:23;7.10;99.90
42031;DHT22;27709;52.036;5.906;2023-02-01T05:44:49;7.00;99.90
42031;DHT22;27709;52.036;5.906;2023-02-01T05:47:17;7.00;99.90
42031;DHT22;27709;52.036;5.906;2023-02-01T05:49:42;7.00;99.90
42031;DHT22;27709;52.036;5.906;2023-02-01T05:52:08;7.10;99.90
42031;DHT22;27709;52.036;5.906;2023-02-01T05:54:34;7.00;99.90
42031;DHT22;27709;52.036;5.906;2023-02-01T05:57:02;7.00;99.90
42031;DHT22;27709;52.036;5.906;2023-02-01T05:59:29;7.00;99.90
42031;DHT22;27709;52.036;5.906;2023-02-01T06:01:57;7.00;99.90
42031;DHT22;27709;52.036;5.906;2023-02-01T06:04:23;7.00;99.90
42031;DHT22;27709;52.036;5.906;2023-02-01T06:06:48;7.00;99.90
42031;DHT22;27709;52.036;5.906;2023-02-01T06:09:16;7.00;99.90
42031;DHT22;27709;52.036;5.906;2023-02-01T06:11:41;7.00;99.90
42031;DHT22;27709;52.036;5.906;2023-02-01T06:14:07;7.00;99.90
42031;DHT22;27709;52.036;5.906;2023-02-01T06:16:33;7.00;99.90
42031;DHT22;27709;52.036;5.906;2023-02-01T06:19:01;7.00;99.90
42031;DHT22;27709;52.036;5.906;2023-02-01T06:21:30;7.00;99.90
42031;DHT22;27709;52.036;5.906;2023-02-01T06:23:55;7.10;99.90
42031;DHT22;27709;52.036;5.906;2023-02-01T06:26:23;7.10;99.90
42031;DHT22;27709;52.036;5.906;2023-02-01T06:28:49;7.10;99.90
42031;DHT22;27709;52.036;5.906;2023-02-01T06:31:16;7.10;99.90
42031;DHT22;27709;52.036;5.906;2023-02-01T06:33:42;7.20;99.90
42031;DHT22;27709;52.036;5.906;2023-02-01T06:36:10;7.20;99.90
42031;DHT22;27709;52.036;5.906;2023-02-01T06:38:37;7.10;99.90
42031;DHT22;27709;52.036;5.906;2023-02-01T06:41:04;7.20;99.90
42031;DHT22;27709;52.036;5.906;2023-02-01T06:43:31;7.10;99.90
42031;DHT22;27709;52.036;5.906;2023-02-01T06:46:03;7.10;99.90
42031;DHT22;27709;52.036;5.906;2023-02-01T06:48:29;7.10;99.90
42031;DHT22;27709;52.036;5.906;2023-02-01T06:50:55;7.10;99.90
42031;DHT22;27709;52.036;5.906;2023-02-01T06:53:21;7.10;99.90
42031;DHT22;27709;52.036;5.906;2023-02-01T06:56:04;7.10;99.90
42031;DHT22;27709;52.036;5.906;2023-02-01T06:58:31;7.10;99.90
42031;DHT22;27709;52.036;5.906;2023-02-01T07:00:57;7.10;99.90
42031;DHT22;27709;52.036;5.906;2023-02-01T07:03:23;7.10;99.90
42031;DHT22;27709;52.036;5.906;2023-02-01T07:05:48;7.10;99.90
42031;DHT22;27709;52.036;5.906;2023-02-01T07:08:14;7.10;99.90
42031;DHT22;27709;52.036;5.906;2023-02-01T07:10:40;7.10;99.90
42031;DHT22;27709;52.036;5.906;2023-02-01T07:13:05;7.10;99.90
42031;DHT22;27709;52.036;5.906;2023-02-01T07:15:36;7.00;99.90
42031;DHT22;27709;52.036;5.906;2023-02-01T07:18:02;7.00;99.90
42031;DHT22;27709;52.036;5.906;2023-02-01T07:20:27;7.00;99.90
42031;DHT22;27709;52.036;5.906;2023-02-01T07:22:56;6.90;99.90
42031;DHT22;27709;52.036;5.906;2023-02-01T07:25:24;6.80;99.90
42031;DHT22;27709;52.036;5.906;2023-02-01T07:27:49;6.80;99.90
42031;DHT22;27709;52.036;5.906;2023-02-01T07:30:15;6.80;99.90
42031;DHT22;27709;52.036;5.906;2023-02-01T07:32:41;6.80;99.90
42031;DHT22;27709;52.036;5.906;2023-02-01T07:35:06;6.80;99.90
42031;DHT22;27709;52.036;5.906;2023-02-01T07:37:35;6.80;99.90
42031;DHT22;27709;52.036;5.906;2023-02-01T07:40:01;6.80;99.90
42031;DHT22;27709;52.036;5.906;2023-02-01T07:42:26;6.80;99.90
42031;DHT22;27709;52.036;5.906;2023-02-01T07:44:52;6.80;99.90
42031;DHT22;27709;52.036;5.906;2023-02-01T07:47:17;6.80;99.90
42031;DHT22;27709;52.036;5.906;2023-02-01T07:49:43;6.90;99.90
42031;DHT22;27709;52.036;5.906;2023-02-01T07:52:08;6.80;99.90
42031;DHT22;27709;52.036;5.906;2023-02-01T07:54:36;6.90;99.90
42031;DHT22;27709;52.036;5.906;2023-02-01T07:57:03;6.90;99.90
42031;DHT22;27709;52.036;5.906;2023-02-01T07:59:29;6.90;99.90
42031;DHT22;27709;52.036;5.906;2023-02-01T08:01:55;6.90;99.90
42031;DHT22;27709;52.036;5.906;2023-02-01T08:04:20;6.90;99.90
42031;DHT22;27709;52.036;5.906;2023-02-01T08:06:46;6.90;99.90
42031;DHT22;27709;52.036;5.906;2023-02-01T08:09:12;7.00;99.90
42031;DHT22;27709;52.036;5.906;2023-02-01T08:11:37;7.00;99.90
42031;DHT22;27709;52.036;5.906;2023-02-01T08:14:03;7.10;99.90
42031;DHT22;27709;52.036;5.906;2023-02-01T08:16:29;7.10;99.90
42031;DHT22;27709;52.036;5.906;2023-02-01T08:18:55;7.20;99.90
42031;DHT22;27709;52.036;5.906;2023-02-01T08:21:23;7.30;99.90
42031;DHT22;27709;52.036;5.906;2023-02-01T08:23:49;7.30;99.90
42031;DHT22;27709;52.036;5.906;2023-02-01T08:26:23;7.40;99.90
42031;DHT22;27709;52.036;5.906;2023-02-01T08:28:51;7.40;99.90
42031;DHT22;27709;52.036;5.906;2023-02-01T08:31:19;7.40;99.90
42031;DHT22;27709;52.036;5.906;2023-02-01T08:33:49;7.40;99.90
42031;DHT22;27709;52.036;5.906;2023-02-01T08:36:15;7.50;99.90
42031;DHT22;27709;52.036;5.906;2023-02-01T08:38:41;7.50;99.90
42031;DHT22;27709;52.036;5.906;2023-02-01T08:41:08;7.70;99.90
42031;DHT22;27709;52.036;5.906;2023-02-01T08:43:35;7.80;99.90
42031;DHT22;27709;52.036;5.906;2023-02-01T08:46:01;7.90;99.90
42031;DHT22;27709;52.036;5.906;2023-02-01T08:48:29;8.00;99.90
42031;DHT22;27709;52.036;5.906;2023-02-01T08:50:55;8.20;99.90
42031;DHT22;27709;52.036;5.906;2023-02-01T08:53:21;8.30;99.90
42031;DHT22;27709;52.036;5.906;2023-02-01T08:55:46;8.60;99.90
42031;DHT22;27709;52.036;5.906;2023-02-01T08:58:13;8.80;99.90
42031;DHT22;27709;52.036;5.906;2023-02-01T09:00:39;8.90;99.90
42031;DHT22;27709;52.036;5.906;2023-02-01T09:03:05;9.00;99.90
42031;DHT22;27709;52.036;5.906;2023-02-01T09:05:31;9.10;99.90
42031;DHT22;27709;52.036;5.906;2023-02-01T09:07:57;9.10;99.90
42031;DHT22;27709;52.036;5.906;2023-02-01T09:10:22;9.10;99.90
42031;DHT22;27709;52.036;5.906;2023-02-01T09:12:48;9.00;99.90
42031;DHT22;27709;52.036;5.906;2023-02-01T09:15:14;8.90;99.90
42031;DHT22;27709;52.036;5.906;2023-02-01T09:17:39;8.90;99.90
42031;DHT22;27709;52.036;5.906;2023-02-01T09:20:08;8.80;99.90
42031;DHT22;27709;52.036;5.906;2023-02-01T09:22:33;8.80;99.90
42031;DHT22;27709;52.036;5.906;2023-02-01T09:24:59;8.80;99.90
42031;DHT22;27709;52.036;5.906;2023-02-01T09:27:26;8.70;99.90
42031;DHT22;27709;52.036;5.906;2023-02-01T09:29:52;8.70;99.90
42031;DHT22;27709;52.036;5.906;2023-02-01T09:32:22;8.70;99.90
42031;DHT22;27709;52.036;5.906;2023-02-01T09:34:51;8.60;99.90
42031;DHT22;27709;52.036;5.906;2023-02-01T09:37:20;8.70;99.90
42031;DHT22;27709;52.036;5.906;2023-02-01T09:39:45;8.70;99.90
42031;DHT22;27709;52.036;5.906;2023-02-01T09:47:32;8.90;99.90
42031;DHT22;27709;52.036;5.906;2023-02-01T09:50:13;9.00;99.90
42031;DHT22;27709;52.036;5.906;2023-02-01T09:52:59;8.90;99.90
42031;DHT22;27709;52.036;5.906;2023-02-01T09:55:46;8.80;99.90
42031;DHT22;27709;52.036;5.906;2023-02-01T09:58:34;8.80;99.90
42031;DHT22;27709;52.036;5.906;2023-02-01T10:01:02;8.70;99.90
42031;DHT22;27709;52.036;5.906;2023-02-01T10:03:37;8.70;99.90
42031;DHT22;27709;52.036;5.906;2023-02-01T10:08:55;8.60;99.90
42031;DHT22;27709;52.036;5.906;2023-02-01T10:25:26;8.40;99.90
42031;DHT22;27709;52.036;5.906;2023-02-01T10:27:53;8.40;99.90
42031;DHT22;27709;52.036;5.906;2023-02-01T10:30:25;8.40;99.90
42031;DHT22;27709;52.036;5.906;2023-02-01T10:32:56;8.30;99.90
42031;DHT22;27709;52.036;5.906;2023-02-01T10:35:28;8.30;99.90
42031;DHT22;27709;52.036;5.906;2023-02-01T10:37:58;8.20;99.90
42031;DHT22;27709;52.036;5.906;2023-02-01T10:40:26;8.20;99.90
42031;DHT22;27709;52.036;5.906;2023-02-01T10:42:57;8.10;99.90
42031;DHT22;27709;52.036;5.906;2023-02-01T10:45:27;8.10;99.90
42031;DHT22;27709;52.036;5.906;2023-02-01T10:47:55;8.10;99.90
42031;DHT22;27709;52.036;5.906;2023-02-01T10:50:53;8.00;99.90
42031;DHT22;27709;52.036;5.906;2023-02-01T10:53:41;8.00;99.90
42031;DHT22;27709;52.036;5.906;2023-02-01T10:56:12;7.90;99.90
42031;DHT22;27709;52.036;5.906;2023-02-01T10:58:46;7.80;99.90
42031;DHT22;27709;52.036;5.906;2023-02-01T11:01:30;7.80;99.90
42031;DHT22;27709;52.036;5.906;2023-02-01T11:04:04;7.80;99.90
42031;DHT22;27709;52.036;5.906;2023-02-01T11:06:34;7.80;99.90
42031;DHT22;27709;52.036;5.906;2023-02-01T11:12:20;7.70;99.90
42031;DHT22;27709;52.036;5.906;2023-02-01T11:16:59;7.60;99.90
42031;DHT22;27709;52.036;5.906;2023-02-01T11:19:25;7.60;99.90
42031;DHT22;27709;52.036;5.906;2023-02-01T11:21:53;7.60;99.90
42031;DHT22;27709;52.036;5.906;2023-02-01T11:24:23;7.60;99.90
42031;DHT22;27709;52.036;5.906;2023-02-01T11:26:50;7.60;99.90
42031;DHT22;27709;52.036;5.906;2023-02-01T11:29:18;7.60;99.90
42031;DHT22;27709;52.036;5.906;2023-02-01T11:31:48;7.70;99.90
42031;DHT22;27709;52.036;5.906;2023-02-01T11:34:17;7.70;99.90
42031;DHT22;27709;52.036;5.906;2023-02-01T11:36:46;7.70;99.90
42031;DHT22;27709;52.036;5.906;2023-02-01T11:42:04;7.70;99.90
42031;DHT22;27709;52.036;5.906;2023-02-01T11:44:37;7.70;99.90
42031;DHT22;27709;52.036;5.906;2023-02-01T11:47:40;7.70;99.90
42031;DHT22;27709;52.036;5.906;2023-02-01T11:50:17;7.70;99.90
42031;DHT22;27709;52.036;5.906;2023-02-01T11:55:42;7.70;99.90
42031;DHT22;27709;52.036;5.906;2023-02-01T12:07:53;7.90;99.90
42031;DHT22;27709;52.036;5.906;2023-02-01T12:10:43;8.00;99.90
42031;DHT22;27709;52.036;5.906;2023-02-01T12:16:40;8.00;99.90
42031;DHT22;27709;52.036;5.906;2023-02-01T12:25:05;8.20;99.90
42031;DHT22;27709;52.036;5.906;2023-02-01T12:33:11;8.30;99.90
42031;DHT22;27709;52.036;5.906;2023-02-01T12:38:55;8.40;99.90
42031;DHT22;27709;52.036;5.906;2023-02-01T12:47:38;8.50;99.90
42031;DHT22;27709;52.036;5.906;2023-02-01T12:50:34;8.50;99.90
42031;DHT22;27709;52.036;5.906;2023-02-01T12:53:15;8.60;99.90
42031;DHT22;27709;52.036;5.906;2023-02-01T12:56:13;8.60;99.90
42031;DHT22;27709;52.036;5.906;2023-02-01T12:58:53;8.60;99.90
42031;DHT22;27709;52.036;5.906;2023-02-01T13:01:26;8.60;99.90
42031;DHT22;27709;52.036;5.906;2023-02-01T13:06:34;8.50;99.90
42031;DHT22;27709;52.036;5.906;2023-02-01T13:11:38;8.50;99.90
42031;DHT22;27709;52.036;5.906;2023-02-01T13:16:49;8.60;99.90
42031;DHT22;27709;52.036;5.906;2023-02-01T13:19:27;8.50;99.90
42031;DHT22;27709;52.036;5.906;2023-02-01T13:22:00;8.60;99.90
42031;DHT22;27709;52.036;5.906;2023-02-01T13:24:42;8.60;99.90
42031;DHT22;27709;52.036;5.906;2023-02-01T13:27:12;8.60;99.90
42031;DHT22;27709;52.036;5.906;2023-02-01T13:30:15;8.60;99.90
42031;DHT22;27709;52.036;5.906;2023-02-01T13:40:44;8.60;99.90
42031;DHT22;27709;52.036;5.906;2023-02-01T13:45:47;8.60;99.90
42031;DHT22;27709;52.036;5.906;2023-02-01T13:48:20;8.60;99.90
42031;DHT22;27709;52.036;5.906;2023-02-01T13:50:52;8.60;99.90
42031;DHT22;27709;52.036;5.906;2023-02-01T13:53:29;8.60;99.90
42031;DHT22;27709;52.036;5.906;2023-02-01T13:55:59;8.60;99.90
42031;DHT22;27709;52.036;5.906;2023-02-01T13:58:39;8.60;99.90
42031;DHT22;27709;52.036;5.906;2023-02-01T14:04:00;8.60;99.90
42031;DHT22;27709;52.036;5.906;2023-02-01T14:16:42;8.60;99.90
42031;DHT22;27709;52.036;5.906;2023-02-01T14:19:19;8.60;99.90
42031;DHT22;27709;52.036;5.906;2023-02-01T14:21:51;8.60;99.90
42031;DHT22;27709;52.036;5.906;2023-02-01T14:24:32;8.70;99.90
42031;DHT22;27709;52.036;5.906;2023-02-01T14:27:00;8.70;99.90
42031;DHT22;27709;52.036;5.906;2023-02-01T14:29:35;8.70;99.90
42031;DHT22;27709;52.036;5.906;2023-02-01T14:32:03;8.70;99.90
42031;DHT22;27709;52.036;5.906;2023-02-01T14:44:53;8.70;99.90
42031;DHT22;27709;52.036;5.906;2023-02-01T14:49:59;8.70;99.90
42031;DHT22;27709;52.036;5.906;2023-02-01T14:52:36;8.70;99.90
42031;DHT22;27709;52.036;5.906;2023-02-01T14:57:40;8.70;99.90
42031;DHT22;27709;52.036;5.906;2023-02-01T15:00:29;8.60;99.90
42031;DHT22;27709;52.036;5.906;2023-02-01T15:03:15;8.70;99.90
42031;DHT22;27709;52.036;5.906;2023-02-01T15:05:42;8.70;99.90
42031;DHT22;27709;52.036;5.906;2023-02-01T15:08:20;8.70;99.90
42031;DHT22;27709;52.036;5.906;2023-02-01T15:10:50;8.70;99.90
42031;DHT22;27709;52.036;5.906;2023-02-01T15:13:25;8.70;99.90
42031;DHT22;27709;52.036;5.906;2023-02-01T15:16:12;8.80;99.90
42031;DHT22;27709;52.036;5.906;2023-02-01T15:18:39;8.80;99.90
42031;DHT22;27709;52.036;5.906;2023-02-01T15:21:06;8.70;99.90
42031;DHT22;27709;52.036;5.906;2023-02-01T15:23:33;8.70;99.90
42031;DHT22;27709;52.036;5.906;2023-02-01T15:25:58;8.60;99.90
42031;DHT22;27709;52.036;5.906;2023-02-01T15:28:25;8.60;99.90
42031;DHT22;27709;52.036;5.906;2023-02-01T15:31:03;8.40;99.90
42031;DHT22;27709;52.036;5.906;2023-02-01T15:33:30;8.10;99.90
42031;DHT22;27709;52.036;5.906;2023-02-01T15:38:34;7.40;99.90
42031;DHT22;27709;52.036;5.906;2023-02-01T15:46:11;6.90;99.90
42031;DHT22;27709;52.036;5.906;2023-02-01T15:48:47;6.80;99.90
42031;DHT22;27709;52.036;5.906;2023-02-01T15:51:22;6.70;99.90
42031;DHT22;27709;52.036;5.906;2023-02-01T15:53:51;6.60;99.90
42031;DHT22;27709;52.036;5.906;2023-02-01T15:56:23;6.60;99.90
42031;DHT22;27709;52.036;5.906;2023-02-01T15:58:53;6.60;99.90
42031;DHT22;27709;52.036;5.906;2023-02-01T16:01:19;6.50;99.90
42031;DHT22;27709;52.036;5.906;2023-02-01T16:03:46;6.60;99.90
42031;DHT22;27709;52.036;5.906;2023-02-01T16:09:12;6.60;99.90
42031;DHT22;27709;52.036;5.906;2023-02-01T16:11:48;6.70;99.90
42031;DHT22;27709;52.036;5.906;2023-02-01T16:14:15;6.80;99.90
42031;DHT22;27709;52.036;5.906;2023-02-01T16:16:45;6.90;99.90
42031;DHT22;27709;52.036;5.906;2023-02-01T16:19:13;6.90;99.90
42031;DHT22;27709;52.036;5.906;2023-02-01T16:21:39;7.00;99.90
42031;DHT22;27709;52.036;5.906;2023-02-01T16:24:05;7.00;99.90
42031;DHT22;27709;52.036;5.906;2023-02-01T16:26:32;7.00;99.90
42031;DHT22;27709;52.036;5.906;2023-02-01T16:28:58;7.00;99.90
42031;DHT22;27709;52.036;5.906;2023-02-01T16:31:28;7.10;99.90
42031;DHT22;27709;52.036;5.906;2023-02-01T16:33:58;7.10;99.90
42031;DHT22;27709;52.036;5.906;2023-02-01T16:36:25;7.30;99.90
42031;DHT22;27709;52.036;5.906;2023-02-01T16:38:51;7.40;99.90
42031;DHT22;27709;52.036;5.906;2023-02-01T16:41:20;7.40;99.90
42031;DHT22;27709;52.036;5.906;2023-02-01T16:43:49;7.50;99.90
42031;DHT22;27709;52.036;5.906;2023-02-01T16:46:18;7.60;99.90
42031;DHT22;27709;52.036;5.906;2023-02-01T16:48:53;7.60;99.90
42031;DHT22;27709;52.036;5.906;2023-02-01T16:51:19;7.70;99.90
42031;DHT22;27709;52.036;5.906;2023-02-01T16:53:46;7.70;99.90
42031;DHT22;27709;52.036;5.906;2023-02-01T16:56:29;7.80;99.90
42031;DHT22;27709;52.036;5.906;2023-02-01T16:58:55;7.80;99.90
42031;DHT22;27709;52.036;5.906;2023-02-01T17:01:22;7.90;99.90
42031;DHT22;27709;52.036;5.906;2023-02-01T17:03:47;7.90;99.90
42031;DHT22;27709;52.036;5.906;2023-02-01T17:06:17;7.90;99.90
42031;DHT22;27709;52.036;5.906;2023-02-01T17:08:46;7.90;99.90
42031;DHT22;27709;52.036;5.906;2023-02-01T17:11:12;7.90;99.90
42031;DHT22;27709;52.036;5.906;2023-02-01T17:13:39;7.90;99.90
42031;DHT22;27709;52.036;5.906;2023-02-01T17:18:44;7.70;99.90
42031;DHT22;27709;52.036;5.906;2023-02-01T17:21:14;7.70;99.90
42031;DHT22;27709;52.036;5.906;2023-02-01T17:23:42;7.50;99.90
42031;DHT22;27709;52.036;5.906;2023-02-01T17:26:09;7.30;99.90
42031;DHT22;27709;52.036;5.906;2023-02-01T17:28:34;7.20;99.90
42031;DHT22;27709;52.036;5.906;2023-02-01T17:31:01;7.10;99.90
42031;DHT22;27709;52.036;5.906;2023-02-01T17:33:30;7.00;99.90
42031;DHT22;27709;52.036;5.906;2023-02-01T17:35:57;7.00;99.90
42031;DHT22;27709;52.036;5.906;2023-02-01T17:38:23;7.00;99.90
42031;DHT22;27709;52.036;5.906;2023-02-01T17:40:49;7.10;99.90
42031;DHT22;27709;52.036;5.906;2023-02-01T17:43:30;7.10;99.90
42031;DHT22;27709;52.036;5.906;2023-02-01T17:46:14;7.20;99.90
42031;DHT22;27709;52.036;5.906;2023-02-01T17:48:42;7.10;99.90
42031;DHT22;27709;52.036;5.906;2023-02-01T17:51:19;7.10;99.90
42031;DHT22;27709;52.036;5.906;2023-02-01T17:53:47;7.10;99.90
42031;DHT22;27709;52.036;5.906;2023-02-01T17:56:22;7.10;99.90
42031;DHT22;27709;52.036;5.906;2023-02-01T17:58:48;7.30;99.90
42031;DHT22;27709;52.036;5.906;2023-02-01T18:01:19;7.30;99.90
42031;DHT22;27709;52.036;5.906;2023-02-01T18:03:45;7.40;99.90
42031;DHT22;27709;52.036;5.906;2023-02-01T18:06:16;7.50;99.90
42031;DHT22;27709;52.036;5.906;2023-02-01T18:08:42;7.50;99.90
42031;DHT22;27709;52.036;5.906;2023-02-01T18:11:17;7.60;99.90
42031;DHT22;27709;52.036;5.906;2023-02-01T18:13:43;7.60;99.90
42031;DHT22;27709;52.036;5.906;2023-02-01T18:16:21;7.70;99.90
42031;DHT22;27709;52.036;5.906;2023-02-01T18:18:50;7.70;99.90
42031;DHT22;27709;52.036;5.906;2023-02-01T18:21:17;7.70;99.90
42031;DHT22;27709;52.036;5.906;2023-02-01T18:23:59;7.70;99.90
42031;DHT22;27709;52.036;5.906;2023-02-01T18:26:25;7.80;99.90
42031;DHT22;27709;52.036;5.906;2023-02-01T18:28:51;7.80;99.90
42031;DHT22;27709;52.036;5.906;2023-02-01T18:31:23;7.80;99.90